Airport View

Enter AWOS ICAO identifier for current METAR.

ex. KFNL

KEMT 260257Z 21007KT 10SM OVC030 19/14 A2991

26 Jun 2019 11:48

Frequency: 118.75

Phone: (626) 444-1107

Other Area AWOS: KMWS - KPOC - KCQT - KFUL

TAF AMD KLGB 260839Z 2609/2706 VRB03KT P6SM OVC020 FM261100 VRB03KT 6SM -DZ BR SCT008 OVC021 FM261600 VRB03KT P6SM OVC022 FM261900 21007KT P6SM SCT025 FM262300 26008KT P6SM SKC FM270300 29007KT P6SM SKC